createdAt,value
2022-09-12T00:02:39.523Z,2.10
2022-09-12T00:05:44.284Z,1.23
2022-09-12T00:08:49.056Z,2.10
2022-09-12T00:11:52.595Z,1.53
2022-09-12T00:14:55.824Z,1.50
2022-09-12T00:17:59.291Z,1.37
2022-09-12T00:21:04.663Z,1.07
2022-09-12T00:24:09.578Z,3.63
2022-09-12T00:27:13.040Z,1.67
2022-09-12T00:30:16.399Z,2.50
2022-09-12T00:33:19.808Z,1.87
2022-09-12T00:36:24.553Z,1.40
2022-09-12T00:39:29.169Z,1.60
2022-09-12T00:42:32.404Z,1.50
2022-09-12T00:45:35.685Z,1.40
2022-09-12T00:48:41.731Z,1.50
2022-09-12T00:51:48.001Z,1.57
2022-09-12T00:54:54.834Z,1.60
2022-09-12T00:57:59.511Z,2.17
2022-09-12T01:01:03.211Z,2.33
2022-09-12T01:04:06.561Z,1.10
2022-09-12T01:07:10.309Z,1.50
2022-09-12T01:10:15.126Z,1.10
2022-09-12T01:13:18.792Z,2.40
2022-09-12T01:16:22.082Z,1.07
2022-09-12T01:19:39.944Z,1.43
2022-09-12T01:22:57.662Z,7.77
2022-09-12T01:26:17.539Z,1.30
2022-09-12T01:29:32.716Z,1.23
2022-09-12T01:32:49.097Z,1.20
2022-09-12T01:35:59.367Z,1.63
2022-09-12T01:39:03.999Z,1.63
2022-09-12T01:42:11.988Z,1.90
2022-09-12T01:45:18.504Z,1.50
2022-09-12T01:48:25.216Z,1.20
2022-09-12T01:51:30.335Z,1.23
2022-09-12T01:54:37.422Z,1.40
2022-09-12T01:57:43.180Z,1.43
2022-09-12T02:00:49.105Z,1.00
2022-09-12T02:03:56.103Z,1.57
2022-09-12T02:07:01.240Z,2.13
2022-09-12T02:10:07.550Z,1.40
2022-09-12T02:13:13.736Z,1.17
2022-09-12T02:16:19.637Z,1.20
2022-09-12T02:19:25.537Z,1.40
2022-09-12T02:22:29.988Z,1.40
2022-09-12T02:25:35.847Z,2.40
2022-09-12T02:28:41.188Z,1.30
2022-09-12T02:31:47.018Z,1.53
2022-09-12T02:34:55.427Z,1.13
2022-09-12T02:38:01.883Z,1.77
2022-09-12T02:41:05.368Z,1.60
2022-09-12T02:44:08.638Z,1.23
2022-09-12T02:47:14.247Z,1.33
2022-09-12T02:50:19.127Z,1.80
2022-09-12T02:53:22.461Z,1.30
2022-09-12T02:56:27.656Z,1.53
2022-09-12T02:59:31.040Z,1.90
2022-09-12T03:02:39.800Z,1.00
2022-09-12T03:05:47.881Z,1.20
2022-09-12T03:09:01.769Z,1.30
2022-09-12T03:12:10.575Z,1.40
2022-09-12T03:15:24.617Z,1.40
2022-09-12T03:18:33.811Z,1.07
2022-09-12T03:21:42.919Z,4.60
2022-09-12T03:24:49.973Z,1.60
2022-09-12T03:27:56.047Z,1.00
2022-09-12T03:30:59.670Z,1.50
2022-09-12T03:34:02.981Z,2.90
2022-09-12T03:37:07.696Z,1.40
2022-09-12T03:40:12.044Z,1.30
2022-09-12T03:43:15.313Z,1.00
2022-09-12T03:46:18.600Z,1.47
2022-09-12T03:49:21.819Z,1.40
2022-09-12T03:52:26.757Z,1.93
2022-09-12T03:55:30.093Z,1.00
2022-09-12T03:58:33.849Z,3.60
2022-09-12T04:01:38.079Z,1.57
2022-09-12T04:04:43.200Z,1.90
2022-09-12T04:07:47.788Z,1.37
2022-09-12T04:10:51.334Z,1.43
2022-09-12T04:13:54.583Z,1.83
2022-09-12T04:16:57.955Z,1.80
2022-09-12T04:20:01.192Z,1.37
2022-09-12T04:23:05.909Z,2.23
2022-09-12T04:26:09.661Z,1.70
2022-09-12T04:29:13.275Z,1.67
2022-09-12T04:32:16.479Z,1.87
2022-09-12T04:35:19.737Z,2.00
2022-09-12T04:38:24.666Z,2.97
2022-09-12T04:41:28.861Z,1.90
2022-09-12T04:44:32.353Z,1.80
2022-09-12T04:47:35.628Z,1.40
2022-09-12T04:50:38.907Z,1.77
2022-09-12T04:53:43.860Z,2.63
2022-09-12T04:56:48.696Z,2.67
2022-09-12T04:59:51.896Z,1.43
2022-09-12T05:02:55.137Z,1.47
2022-09-12T05:05:58.377Z,1.30
2022-09-12T05:09:03.984Z,1.60
2022-09-12T05:12:07.957Z,1.53
2022-09-12T05:15:11.701Z,4.17
2022-09-12T05:18:14.897Z,1.30
2022-09-12T05:21:19.241Z,1.47
2022-09-12T05:24:24.653Z,1.40
2022-09-12T05:27:27.925Z,1.50
2022-09-12T05:30:31.196Z,1.73
2022-09-12T05:33:35.085Z,1.80
2022-09-12T05:36:38.836Z,2.03
2022-09-12T05:39:43.409Z,3.13
2022-09-12T05:42:46.664Z,2.23
2022-09-12T05:45:50.854Z,4.57
2022-09-12T05:48:56.402Z,2.03
2022-09-12T05:51:59.967Z,1.40
2022-09-12T05:55:04.567Z,1.43
2022-09-12T05:58:08.164Z,3.00
2022-09-12T06:01:12.407Z,1.70
2022-09-12T06:04:16.067Z,1.90
2022-09-12T06:07:19.334Z,1.80
2022-09-12T06:10:26.311Z,3.13
2022-09-12T06:13:29.546Z,1.67
2022-09-12T06:16:34.158Z,1.70
2022-09-12T06:19:37.691Z,1.83
2022-09-12T06:22:41.006Z,2.13
2022-09-12T06:25:52.103Z,1.67
2022-09-12T06:28:56.221Z,1.73
2022-09-12T06:31:59.464Z,1.43
2022-09-12T06:35:03.724Z,1.67
2022-09-12T06:38:07.641Z,1.70
2022-09-12T06:41:13.653Z,1.70
2022-09-12T06:44:18.186Z,2.03
2022-09-12T06:47:21.549Z,2.10
2022-09-12T06:50:24.921Z,1.50
2022-09-12T06:53:28.762Z,1.43
2022-09-12T06:56:33.370Z,1.97
2022-09-12T06:59:36.605Z,1.43
2022-09-12T07:02:39.924Z,3.00
2022-09-12T07:05:43.222Z,1.90
2022-09-12T07:08:46.571Z,2.40
2022-09-12T07:11:51.429Z,2.37
2022-09-12T07:14:54.639Z,1.67
2022-09-12T07:17:57.925Z,1.70
2022-09-12T07:21:02.248Z,1.43
2022-09-12T07:24:05.597Z,2.27
2022-09-12T07:27:10.256Z,3.30
2022-09-12T07:30:13.747Z,1.33
2022-09-12T07:33:17.039Z,1.13
2022-09-12T07:36:21.049Z,1.13
2022-09-12T07:39:24.536Z,3.80
2022-09-12T07:42:29.138Z,1.33
2022-09-12T07:45:32.363Z,1.30
2022-09-12T07:48:35.745Z,1.30
2022-09-12T07:51:38.973Z,1.43
2022-09-12T07:54:42.278Z,1.40
2022-09-12T07:57:47.076Z,1.97
2022-09-12T08:00:50.375Z,1.47
2022-09-12T08:03:55.637Z,3.23
2022-09-12T08:06:58.849Z,2.00
2022-09-12T08:10:02.247Z,2.67
2022-09-12T08:16:14.534Z,2.97
2022-09-12T08:19:17.764Z,2.87
2022-09-12T08:22:21.909Z,4.77
2022-09-12T08:25:25.972Z,5.57
2022-09-12T08:28:29.528Z,3.77
2022-09-12T08:31:36.638Z,3.87
2022-09-12T08:34:39.980Z,4.47
2022-09-12T08:37:43.456Z,3.43
2022-09-12T08:40:51.499Z,4.13
2022-09-12T08:43:59.437Z,4.40
2022-09-12T08:47:09.259Z,3.13
2022-09-12T08:50:17.637Z,3.30
2022-09-12T08:53:22.300Z,2.30
2022-09-12T08:56:31.419Z,3.17
2022-09-12T08:59:42.329Z,3.50
2022-09-12T09:03:01.700Z,1.97
2022-09-12T09:06:09.703Z,2.77
2022-09-12T09:09:15.859Z,2.20
2022-09-12T09:12:22.025Z,2.03
2022-09-12T09:15:35.710Z,2.03
2022-09-12T09:18:42.473Z,2.53
2022-09-12T09:21:47.097Z,2.03
2022-09-12T09:24:52.926Z,2.08
2022-09-12T09:28:00.980Z,2.25
2022-09-12T09:31:04.518Z,1.35
2022-09-12T09:34:12.703Z,1.67
2022-09-12T09:37:18.712Z,2.05
2022-09-12T09:40:25.484Z,1.60
2022-09-12T09:43:29.079Z,2.05
2022-09-12T09:46:32.470Z,1.50
2022-09-12T09:49:37.483Z,1.85
2022-09-12T09:52:41.589Z,1.48
2022-09-12T09:55:45.008Z,1.20
2022-09-12T09:58:48.367Z,1.50
2022-09-12T10:01:54.825Z,2.00
2022-09-12T10:05:00.370Z,1.55
2022-09-12T10:08:04.383Z,1.52
2022-09-12T10:11:08.722Z,1.60
2022-09-12T10:14:28.580Z,3.08
2022-09-12T10:17:34.478Z,2.28
2022-09-12T10:20:40.718Z,1.88
2022-09-12T10:23:44.144Z,1.25
2022-09-12T10:26:55.874Z,1.83
2022-09-12T10:30:03.257Z,2.35
2022-09-12T10:33:09.047Z,1.85
2022-09-12T10:36:14.287Z,1.65
2022-09-12T10:39:20.018Z,1.60
2022-09-12T10:42:38.226Z,1.08
2022-09-12T10:45:41.855Z,1.75
2022-09-12T10:48:45.281Z,1.42
2022-09-12T10:51:50.119Z,1.88
2022-09-12T10:54:53.828Z,1.42
2022-09-12T10:58:03.964Z,1.15
2022-09-12T11:01:11.774Z,1.30
2022-09-12T11:04:23.822Z,1.17
2022-09-12T11:07:37.113Z,1.20
2022-09-12T11:10:46.509Z,1.33
2022-09-12T11:13:59.213Z,1.50
2022-09-12T11:17:08.870Z,2.35
2022-09-12T11:20:28.122Z,1.17
2022-09-12T11:23:52.254Z,1.20
2022-09-12T11:27:02.713Z,1.50
2022-09-12T11:30:07.517Z,1.38
2022-09-12T11:33:21.135Z,1.48
2022-09-12T11:36:30.337Z,1.50
2022-09-12T11:39:39.486Z,2.25
2022-09-12T11:42:44.479Z,1.30
2022-09-12T11:45:47.872Z,1.77
2022-09-12T11:48:56.239Z,1.50
2022-09-12T11:52:02.163Z,1.63
2022-09-12T11:55:06.889Z,1.33
2022-09-12T11:58:13.390Z,1.02
2022-09-12T12:01:20.866Z,1.58
2022-09-12T12:04:27.864Z,1.20
2022-09-12T12:07:34.199Z,1.10
2022-09-12T12:10:39.139Z,1.38
2022-09-12T12:13:49.803Z,1.15
2022-09-12T12:16:53.228Z,1.23
2022-09-12T12:20:04.286Z,1.60
2022-09-12T12:23:23.782Z,1.02
2022-09-12T12:26:43.512Z,1.15
2022-09-12T12:29:48.091Z,2.17
2022-09-12T12:32:51.335Z,0.90
2022-09-12T12:36:04.102Z,1.67
2022-09-12T12:39:22.263Z,1.50
2022-09-12T12:42:43.932Z,0.90
2022-09-12T12:46:01.437Z,1.02
2022-09-12T12:49:10.814Z,1.35
2022-09-12T12:52:18.097Z,1.40
2022-09-12T12:55:23.193Z,1.10
2022-09-12T12:58:30.020Z,1.27
2022-09-12T13:01:40.891Z,0.90
2022-09-12T13:04:46.049Z,0.95
2022-09-12T13:07:54.980Z,1.08
2022-09-12T13:11:00.396Z,1.02
2022-09-12T13:14:04.661Z,1.05
2022-09-12T13:17:09.581Z,1.08
2022-09-12T13:20:28.609Z,1.30
2022-09-12T13:23:32.810Z,0.90
2022-09-12T13:26:37.357Z,1.27
2022-09-12T13:29:40.644Z,0.90
2022-09-12T13:32:45.716Z,2.47
2022-09-12T13:36:03.828Z,1.05
2022-09-12T13:39:12.524Z,1.00
2022-09-12T13:42:31.499Z,3.22
2022-09-12T13:45:37.016Z,1.58
2022-09-12T13:48:42.443Z,0.80
2022-09-12T13:51:45.760Z,0.90
2022-09-12T13:54:50.909Z,0.90
2022-09-12T13:57:58.257Z,1.67
2022-09-12T14:01:01.976Z,1.30
2022-09-12T14:04:33.563Z,1.17
2022-09-12T14:07:40.521Z,1.00
2022-09-12T14:10:45.199Z,1.27
2022-09-12T14:13:48.583Z,1.90
2022-09-12T14:16:54.730Z,1.02
2022-09-12T14:20:03.273Z,2.58
2022-09-12T14:23:09.029Z,1.13
2022-09-12T14:26:13.137Z,1.38
2022-09-12T14:29:17.690Z,1.33
2022-09-12T14:32:24.221Z,0.90
2022-09-12T14:35:28.797Z,4.75
2022-09-12T14:38:36.102Z,1.30
2022-09-12T14:41:40.294Z,0.70
2022-09-12T14:44:45.521Z,1.10
2022-09-12T14:47:50.649Z,1.20
2022-09-12T14:50:55.921Z,1.00
2022-09-12T14:53:59.543Z,1.30
2022-09-12T14:57:04.135Z,0.80
2022-09-12T15:00:20.327Z,1.05
2022-09-12T15:03:28.600Z,4.10
2022-09-12T15:06:36.771Z,1.10
2022-09-12T15:09:45.611Z,4.88
2022-09-12T15:12:50.426Z,0.85
2022-09-12T15:15:54.499Z,0.90
2022-09-12T15:18:57.860Z,1.00
2022-09-12T15:22:02.427Z,1.00
2022-09-12T15:25:06.289Z,0.90
2022-09-12T15:28:15.005Z,1.08
2022-09-12T15:31:24.131Z,2.30
2022-09-12T15:34:27.653Z,1.02
2022-09-12T15:37:32.250Z,2.75
2022-09-12T15:40:35.520Z,0.70
2022-09-12T15:43:38.773Z,0.90
2022-09-12T15:46:42.626Z,1.13
2022-09-12T15:49:45.961Z,1.13
2022-09-12T15:52:50.647Z,2.28
2022-09-12T15:55:54.084Z,3.22
2022-09-12T15:58:59.787Z,1.55
2022-09-12T16:02:03.552Z,0.73
2022-09-12T16:05:07.253Z,0.75
2022-09-12T16:08:11.845Z,1.48
2022-09-12T16:11:16.922Z,1.00
2022-09-12T16:14:20.596Z,1.27
2022-09-12T16:17:23.876Z,0.88
2022-09-12T16:20:27.221Z,1.58
2022-09-12T16:23:31.814Z,1.35
2022-09-12T16:26:35.419Z,2.88
2022-09-12T16:29:38.754Z,1.08
2022-09-12T16:32:42.089Z,1.30
2022-09-12T16:35:45.315Z,0.90
2022-09-12T16:38:51.053Z,1.63
2022-09-12T16:41:54.269Z,1.08
2022-09-12T16:44:57.739Z,1.23
2022-09-12T16:48:01.129Z,2.20
2022-09-12T16:51:05.009Z,1.10
2022-09-12T16:54:09.677Z,1.35
2022-09-12T16:57:13.126Z,2.13
2022-09-12T17:00:16.785Z,1.40
2022-09-12T17:03:20.042Z,1.20
2022-09-12T17:06:23.769Z,1.63
2022-09-12T17:09:29.451Z,5.47
2022-09-12T17:12:32.770Z,2.08
2022-09-12T17:15:38.879Z,2.35
2022-09-12T17:18:42.488Z,2.20
2022-09-12T17:21:47.113Z,2.25
2022-09-12T17:24:51.713Z,1.95
2022-09-12T17:27:55.101Z,2.25
2022-09-12T17:30:58.732Z,2.17
2022-09-12T17:34:02.529Z,1.63
2022-09-12T17:37:05.822Z,1.38
2022-09-12T17:40:11.026Z,1.45
2022-09-12T17:43:14.468Z,2.20
2022-09-12T17:46:18.324Z,2.00
2022-09-12T17:49:22.056Z,2.33
2022-09-12T17:52:25.333Z,3.05
2022-09-12T17:55:32.034Z,2.33
2022-09-12T17:58:35.799Z,2.50
2022-09-12T18:01:57.194Z,2.58
2022-09-12T18:05:01.664Z,1.85
2022-09-12T18:08:04.946Z,3.65
2022-09-12T18:11:09.508Z,3.85
2022-09-12T18:14:14.300Z,2.20
2022-09-12T18:17:18.343Z,2.85
2022-09-12T18:20:21.610Z,2.45
2022-09-12T18:23:24.853Z,2.65
2022-09-12T18:26:30.583Z,2.65
2022-09-12T18:29:33.837Z,2.47
2022-09-12T18:32:37.106Z,2.55
2022-09-12T18:35:40.358Z,3.00
2022-09-12T18:38:43.947Z,2.63
2022-09-12T18:41:48.846Z,2.50
2022-09-12T18:44:52.067Z,2.35
2022-09-12T18:47:55.350Z,2.53
2022-09-12T18:51:03.381Z,2.10
2022-09-12T18:54:08.727Z,2.72
2022-09-12T18:57:13.615Z,2.72
2022-09-12T19:00:17.046Z,2.65
2022-09-12T19:03:20.259Z,2.38
2022-09-12T19:06:24.939Z,2.90
2022-09-12T19:09:29.064Z,2.67
2022-09-12T19:12:33.951Z,3.70
2022-09-12T19:15:40.895Z,3.90
2022-09-12T19:18:44.643Z,3.50
2022-09-12T19:21:48.106Z,2.95
2022-09-12T19:24:51.316Z,3.85
2022-09-12T19:27:55.914Z,4.25
2022-09-12T19:30:59.577Z,2.70
2022-09-12T19:34:03.186Z,3.10
2022-09-12T19:37:06.683Z,3.85
2022-09-12T19:40:10.322Z,3.67
2022-09-12T19:43:15.043Z,3.88
2022-09-12T19:46:18.804Z,3.95
2022-09-12T19:49:22.144Z,4.35
2022-09-12T19:52:25.379Z,4.37
2022-09-12T19:55:28.605Z,3.65
2022-09-12T19:58:34.009Z,6.40
2022-09-12T20:01:37.889Z,3.77
2022-09-12T20:04:41.337Z,4.55
2022-09-12T20:07:44.587Z,3.60
2022-09-12T20:10:47.882Z,4.10
2022-09-12T20:13:52.580Z,3.38
2022-09-12T20:16:55.839Z,5.07
2022-09-12T20:19:59.161Z,4.37
2022-09-12T20:23:02.494Z,4.10
2022-09-12T20:26:05.989Z,4.07
2022-09-12T20:29:10.911Z,4.60
2022-09-12T20:32:14.209Z,3.90
2022-09-12T20:35:17.568Z,3.83
2022-09-12T20:38:20.828Z,3.90
2022-09-12T20:41:24.375Z,4.27
2022-09-12T20:44:30.203Z,4.43
2022-09-12T20:47:33.507Z,3.53
2022-09-12T20:50:36.831Z,4.07
2022-09-12T20:53:40.069Z,3.87
2022-09-12T20:56:43.694Z,3.27
2022-09-12T20:59:48.300Z,5.13
2022-09-12T21:02:52.924Z,3.43
2022-09-12T21:05:56.871Z,3.83
2022-09-12T21:09:00.779Z,3.40
2022-09-12T21:12:04.377Z,3.83
2022-09-12T21:15:10.369Z,3.83
2022-09-12T21:18:13.599Z,3.93
2022-09-12T21:21:17.281Z,3.37
2022-09-12T21:24:20.660Z,3.60
2022-09-12T21:27:23.958Z,4.47
2022-09-12T21:30:29.772Z,3.80
2022-09-12T21:33:33.290Z,4.40
2022-09-12T21:36:37.076Z,3.87
2022-09-12T21:39:40.420Z,3.60
2022-09-12T21:42:44.214Z,4.27
2022-09-12T21:45:48.833Z,3.53
2022-09-12T21:48:52.137Z,3.63
2022-09-12T21:51:55.534Z,4.13
2022-09-12T21:54:58.757Z,3.67
2022-09-12T21:58:01.997Z,4.60
2022-09-12T22:01:08.624Z,3.80
2022-09-12T22:04:12.164Z,6.10
2022-09-12T22:07:15.438Z,4.37
2022-09-12T22:10:18.857Z,4.97
2022-09-12T22:13:22.112Z,4.00
2022-09-12T22:16:26.778Z,4.50
2022-09-12T22:19:30.042Z,3.53
2022-09-12T22:22:50.800Z,8.23
2022-09-12T22:25:55.567Z,4.07
2022-09-12T22:28:58.829Z,3.40
2022-09-12T22:32:04.052Z,3.60
2022-09-12T22:35:07.609Z,4.33
2022-09-12T22:38:11.006Z,4.23
2022-09-12T22:41:14.277Z,3.60
2022-09-12T22:44:18.019Z,4.00
2022-09-12T22:47:22.675Z,3.80
2022-09-12T22:50:25.920Z,3.53
2022-09-12T22:53:29.200Z,3.43
2022-09-12T22:56:32.423Z,4.17
2022-09-12T22:59:35.648Z,4.40
2022-09-12T23:02:40.520Z,3.40
2022-09-12T23:05:43.792Z,3.20
2022-09-12T23:08:47.160Z,3.90
2022-09-12T23:11:50.743Z,3.53
2022-09-12T23:14:53.942Z,4.07
2022-09-12T23:17:58.797Z,3.30
2022-09-12T23:21:02.499Z,4.50
2022-09-12T23:24:05.873Z,4.20
2022-09-12T23:27:09.147Z,3.60
2022-09-12T23:30:12.985Z,3.50
2022-09-12T23:33:17.724Z,3.43
2022-09-12T23:36:21.065Z,5.33
2022-09-12T23:39:24.531Z,3.87
2022-09-12T23:42:27.780Z,3.87
2022-09-12T23:45:31.008Z,4.20
2022-09-12T23:48:36.119Z,4.90
2022-09-12T23:51:39.660Z,3.70
2022-09-12T23:54:42.927Z,3.27
2022-09-12T23:57:46.158Z,3.70
